createdAt,value
2023-02-07T00:00:47.881Z,1040.70
2023-02-07T00:01:47.784Z,1040.70
2023-02-07T00:02:48.443Z,1040.73
2023-02-07T00:03:47.616Z,1040.64
2023-02-07T00:04:47.848Z,1040.65
2023-02-07T00:05:47.857Z,1040.59
2023-02-07T00:06:48.291Z,1040.61
2023-02-07T00:07:47.785Z,1040.56
2023-02-07T00:08:47.558Z,1040.51
2023-02-07T00:09:48.130Z,1040.48
2023-02-07T00:10:47.754Z,1040.52
2023-02-07T00:11:48.436Z,1040.48
2023-02-07T00:12:47.505Z,1040.46
2023-02-07T00:13:47.657Z,1040.50
2023-02-07T00:14:47.821Z,1040.49
2023-02-07T00:15:47.496Z,1040.53
2023-02-07T00:16:48.517Z,1040.56
2023-02-07T00:17:47.494Z,1040.52
2023-02-07T00:18:47.386Z,1040.54
2023-02-07T00:19:47.446Z,1040.56
2023-02-07T00:20:47.398Z,1040.59
2023-02-07T00:21:47.530Z,1040.57
2023-02-07T00:22:47.570Z,1040.60
2023-02-07T00:23:47.633Z,1040.64
2023-02-07T00:24:47.270Z,1040.64
2023-02-07T00:25:47.636Z,1040.66
2023-02-07T00:26:47.372Z,1040.67
2023-02-07T00:27:47.766Z,1040.59
2023-02-07T00:28:47.407Z,1040.58
2023-02-07T00:29:47.994Z,1040.56
2023-02-07T00:30:48.125Z,1040.60
2023-02-07T00:31:47.334Z,1040.57
2023-02-07T00:32:47.308Z,1040.56
2023-02-07T00:33:47.277Z,1040.63
2023-02-07T00:34:47.275Z,1040.61
2023-02-07T00:35:47.168Z,1040.62
2023-02-07T00:36:47.300Z,1040.59
2023-02-07T00:37:47.514Z,1040.61
2023-02-07T00:38:47.130Z,1040.62
2023-02-07T00:39:47.227Z,1040.65
2023-02-07T00:40:47.237Z,1040.62
2023-02-07T00:41:47.355Z,1040.70
2023-02-07T00:42:47.230Z,1040.72
2023-02-07T00:43:47.258Z,1040.75
2023-02-07T00:44:47.143Z,1040.76
2023-02-07T00:45:47.082Z,1040.80
2023-02-07T00:46:47.585Z,1040.82
2023-02-07T00:47:47.054Z,1040.80
2023-02-07T00:48:47.649Z,1040.74
2023-02-07T00:49:47.216Z,1040.77
2023-02-07T00:50:47.167Z,1040.74
2023-02-07T00:51:47.176Z,1040.76
2023-02-07T00:52:47.156Z,1040.75
2023-02-07T00:53:47.167Z,1040.75
2023-02-07T00:54:47.144Z,1040.74
2023-02-07T00:55:46.998Z,1040.68
2023-02-07T00:56:47.347Z,1040.65
2023-02-07T00:57:46.999Z,1040.59
2023-02-07T00:58:46.997Z,1040.56
2023-02-07T00:59:46.922Z,1040.54
2023-02-07T01:00:46.898Z,1040.49
2023-02-07T01:01:47.021Z,1040.48
2023-02-07T01:02:46.880Z,1040.42
2023-02-07T01:03:46.804Z,1040.40
2023-02-07T01:04:46.842Z,1040.39
2023-02-07T01:05:46.921Z,1040.44
2023-02-07T01:06:46.936Z,1040.42
2023-02-07T01:07:46.790Z,1040.41
2023-02-07T01:08:46.723Z,1040.44
2023-02-07T01:09:46.917Z,1040.41
2023-02-07T01:10:47.028Z,1040.42
2023-02-07T01:11:46.984Z,1040.42
2023-02-07T01:12:46.985Z,1040.43
2023-02-07T01:13:46.645Z,1040.40
2023-02-07T01:14:47.801Z,1040.44
2023-02-07T01:15:46.717Z,1040.44
2023-02-07T01:16:46.687Z,1040.45
2023-02-07T01:17:46.707Z,1040.43
2023-02-07T01:18:46.842Z,1040.44
2023-02-07T01:19:46.802Z,1040.44
2023-02-07T01:20:47.083Z,1040.42
2023-02-07T01:21:46.715Z,1040.45
2023-02-07T01:22:47.073Z,1040.45
2023-02-07T01:23:46.769Z,1040.43
2023-02-07T01:24:46.689Z,1040.49
2023-02-07T01:25:46.740Z,1040.44
2023-02-07T01:26:46.653Z,1040.48
2023-02-07T01:27:48.912Z,1040.48
2023-02-07T01:28:46.941Z,1040.42
2023-02-07T01:29:46.675Z,1040.39
2023-02-07T01:30:46.723Z,1040.43
2023-02-07T01:31:46.489Z,1040.41
2023-02-07T01:32:46.719Z,1040.40
2023-02-07T01:33:46.514Z,1040.40
2023-02-07T01:34:46.480Z,1040.39
2023-02-07T01:35:46.616Z,1040.36
2023-02-07T01:36:46.570Z,1040.38
2023-02-07T01:37:46.373Z,1040.35
2023-02-07T01:38:46.297Z,1040.35
2023-02-07T01:39:46.331Z,1040.36
2023-02-07T01:40:46.617Z,1040.33
2023-02-07T01:41:46.403Z,1040.35
2023-02-07T01:42:46.512Z,1040.31
2023-02-07T01:43:48.633Z,1040.32
2023-02-07T01:44:50.386Z,1040.40
2023-02-07T01:45:49.954Z,1040.38
2023-02-07T01:46:46.668Z,1040.39
2023-02-07T01:47:49.519Z,1040.43
2023-02-07T01:48:51.625Z,1040.39
2023-02-07T01:49:48.190Z,1040.41
2023-02-07T01:50:47.754Z,1040.48
2023-02-07T01:51:48.356Z,1040.49
2023-02-07T01:52:47.706Z,1040.43
2023-02-07T01:53:50.522Z,1040.43
2023-02-07T01:54:51.941Z,1040.44
2023-02-07T01:55:46.763Z,1040.41
2023-02-07T01:56:51.370Z,1040.37
2023-02-07T01:57:47.277Z,1040.41
2023-02-07T01:58:46.250Z,1040.43
2023-02-07T01:59:46.104Z,1040.43
2023-02-07T02:00:46.141Z,1040.49
2023-02-07T02:01:46.226Z,1040.48
2023-02-07T02:02:46.501Z,1040.47
2023-02-07T02:03:46.046Z,1040.43
2023-02-07T02:04:46.295Z,1040.46
2023-02-07T02:05:46.272Z,1040.48
2023-02-07T02:06:45.976Z,1040.40
2023-02-07T02:07:46.129Z,1040.45
2023-02-07T02:08:46.065Z,1040.37
2023-02-07T02:09:45.950Z,1040.34
2023-02-07T02:10:46.007Z,1040.30
2023-02-07T02:11:47.897Z,1040.25
2023-02-07T02:12:47.243Z,1040.33
2023-02-07T02:13:46.366Z,1040.30
2023-02-07T02:14:46.324Z,1040.34
2023-02-07T02:15:46.029Z,1040.29
2023-02-07T02:16:45.988Z,1040.30
2023-02-07T02:17:47.690Z,1040.34
2023-02-07T02:18:45.989Z,1040.33
2023-02-07T02:19:46.059Z,1040.29
2023-02-07T02:20:46.794Z,1040.27
2023-02-07T02:21:45.901Z,1040.22
2023-02-07T02:22:46.041Z,1040.19
2023-02-07T02:23:45.799Z,1040.18
2023-02-07T02:24:45.848Z,1040.24
2023-02-07T02:25:45.773Z,1040.26
2023-02-07T02:26:45.695Z,1040.27
2023-02-07T02:27:45.787Z,1040.27
2023-02-07T02:28:45.671Z,1040.31
2023-02-07T02:29:45.985Z,1040.25
2023-02-07T02:30:45.731Z,1040.27
2023-02-07T02:31:45.675Z,1040.27
2023-02-07T02:32:45.892Z,1040.25
2023-02-07T02:33:45.860Z,1040.28
2023-02-07T02:34:45.572Z,1040.24
2023-02-07T02:35:45.624Z,1040.32
2023-02-07T02:36:45.547Z,1040.38
2023-02-07T02:37:45.917Z,1040.42
2023-02-07T02:38:46.062Z,1040.36
2023-02-07T02:39:45.750Z,1040.36
2023-02-07T02:40:45.559Z,1040.34
2023-02-07T02:41:45.689Z,1040.29
2023-02-07T02:42:45.613Z,1040.27
2023-02-07T02:43:45.538Z,1040.27
2023-02-07T02:44:45.593Z,1040.25
2023-02-07T02:45:45.850Z,1040.25
2023-02-07T02:46:45.556Z,1040.26
2023-02-07T02:47:46.495Z,1040.24
2023-02-07T02:48:45.758Z,1040.31
2023-02-07T02:49:45.468Z,1040.26
2023-02-07T02:50:45.538Z,1040.28
2023-02-07T02:51:45.589Z,1040.31
2023-02-07T02:52:50.888Z,1040.25
2023-02-07T02:53:47.574Z,1040.31
2023-02-07T02:54:45.534Z,1040.25
2023-02-07T02:55:45.622Z,1040.26
2023-02-07T02:56:45.262Z,1040.29
2023-02-07T02:57:45.582Z,1040.26
2023-02-07T02:58:45.855Z,1040.23
2023-02-07T02:59:45.438Z,1040.26
2023-02-07T03:00:45.196Z,1040.23
2023-02-07T03:01:46.037Z,1040.27
2023-02-07T03:02:45.569Z,1040.29
2023-02-07T03:03:45.336Z,1040.28
2023-02-07T03:04:45.576Z,1040.25
2023-02-07T03:05:45.081Z,1040.27
2023-02-07T03:06:45.555Z,1040.28
2023-02-07T03:07:45.350Z,1040.19
2023-02-07T03:08:45.171Z,1040.23
2023-02-07T03:09:45.219Z,1040.27
2023-02-07T03:10:45.663Z,1040.27
2023-02-07T03:11:45.270Z,1040.20
2023-02-07T03:12:44.979Z,1040.16
2023-02-07T03:13:45.121Z,1040.17
2023-02-07T03:14:45.004Z,1040.17
2023-02-07T03:15:45.177Z,1040.20
2023-02-07T03:16:45.124Z,1040.16
2023-02-07T03:17:45.131Z,1040.20
2023-02-07T03:18:45.011Z,1040.21
2023-02-07T03:19:45.003Z,1040.20
2023-02-07T03:20:45.075Z,1040.15
2023-02-07T03:21:46.224Z,1040.12
2023-02-07T03:22:45.050Z,1040.11
2023-02-07T03:23:45.023Z,1040.10
2023-02-07T03:24:44.913Z,1040.11
2023-02-07T03:25:45.014Z,1040.02
2023-02-07T03:26:47.412Z,1039.95
2023-02-07T03:27:44.971Z,1039.96
2023-02-07T03:28:44.923Z,1039.90
2023-02-07T03:29:44.802Z,1039.84
2023-02-07T03:30:45.176Z,1039.89
2023-02-07T03:31:44.907Z,1039.83
2023-02-07T03:32:44.900Z,1039.85
2023-02-07T03:33:45.137Z,1039.86
2023-02-07T03:34:45.286Z,1039.87
2023-02-07T03:35:44.992Z,1039.88
2023-02-07T03:36:45.090Z,1039.84
2023-02-07T03:37:44.979Z,1039.88
2023-02-07T03:38:44.861Z,1039.88
2023-02-07T03:39:44.757Z,1039.87
2023-02-07T03:40:44.949Z,1039.86
2023-02-07T03:41:44.902Z,1039.78
2023-02-07T03:42:45.148Z,1039.78
2023-02-07T03:43:44.832Z,1039.77
2023-02-07T03:44:44.912Z,1039.77
2023-02-07T03:45:44.724Z,1039.78
2023-02-07T03:46:44.866Z,1039.80
2023-02-07T03:47:45.003Z,1039.77
2023-02-07T03:48:44.829Z,1039.76
2023-02-07T03:49:44.782Z,1039.71
2023-02-07T03:50:44.940Z,1039.76
2023-02-07T03:51:44.782Z,1039.73
2023-02-07T03:52:44.673Z,1039.65
2023-02-07T03:53:44.637Z,1039.69
2023-02-07T03:54:44.632Z,1039.63
2023-02-07T03:55:44.513Z,1039.63
2023-02-07T03:56:44.554Z,1039.59
2023-02-07T03:57:44.770Z,1039.56
2023-02-07T03:58:44.829Z,1039.55
2023-02-07T03:59:44.731Z,1039.54
2023-02-07T04:00:44.915Z,1039.52
2023-02-07T04:01:44.531Z,1039.45
2023-02-07T04:02:44.604Z,1039.37
2023-02-07T04:03:44.604Z,1039.35
2023-02-07T04:04:44.526Z,1039.35
2023-02-07T04:05:44.493Z,1039.32
2023-02-07T04:06:44.424Z,1039.32
2023-02-07T04:07:45.565Z,1039.33
2023-02-07T04:08:44.452Z,1039.35
2023-02-07T04:09:44.896Z,1039.36
2023-02-07T04:10:45.072Z,1039.40
2023-02-07T04:11:44.370Z,1039.41
2023-02-07T04:12:44.457Z,1039.43
2023-02-07T04:13:44.530Z,1039.40
2023-02-07T04:14:44.561Z,1039.49
2023-02-07T04:15:44.599Z,1039.47
2023-02-07T04:16:45.390Z,1039.51
2023-02-07T04:17:44.293Z,1039.49
2023-02-07T04:18:44.094Z,1039.55
2023-02-07T04:19:44.098Z,1039.54
2023-02-07T04:20:44.364Z,1039.53
2023-02-07T04:21:44.233Z,1039.51
2023-02-07T04:22:44.399Z,1039.55
2023-02-07T04:23:44.242Z,1039.55
2023-02-07T04:24:44.401Z,1039.63
2023-02-07T04:25:44.067Z,1039.65
2023-02-07T04:26:44.092Z,1039.67
2023-02-07T04:27:44.201Z,1039.65
2023-02-07T04:28:44.142Z,1039.66
2023-02-07T04:29:44.161Z,1039.70
2023-02-07T04:30:44.019Z,1039.73
2023-02-07T04:31:44.934Z,1039.66
2023-02-07T04:32:44.326Z,1039.74
2023-02-07T04:33:44.594Z,1039.67
2023-02-07T04:34:43.990Z,1039.65
2023-02-07T04:35:44.190Z,1039.63
2023-02-07T04:36:45.635Z,1039.58
2023-02-07T04:37:44.391Z,1039.55
2023-02-07T04:38:44.182Z,1039.51
2023-02-07T04:39:44.905Z,1039.58
2023-02-07T04:40:43.912Z,1039.55
2023-02-07T04:41:43.821Z,1039.54
2023-02-07T04:42:44.119Z,1039.58
2023-02-07T04:43:43.797Z,1039.63
2023-02-07T04:44:43.823Z,1039.62
2023-02-07T04:45:44.076Z,1039.61
2023-02-07T04:46:43.825Z,1039.60
2023-02-07T04:47:43.945Z,1039.57
2023-02-07T04:48:43.802Z,1039.64
2023-02-07T04:49:43.872Z,1039.65
2023-02-07T04:50:43.822Z,1039.67
2023-02-07T04:51:44.114Z,1039.66
2023-02-07T04:52:44.031Z,1039.63
2023-02-07T04:53:44.041Z,1039.67
2023-02-07T04:54:44.537Z,1039.64
2023-02-07T04:55:44.105Z,1039.65
2023-02-07T04:56:43.772Z,1039.64
2023-02-07T04:57:44.198Z,1039.63
2023-02-07T04:58:43.981Z,1039.58
2023-02-07T04:59:43.864Z,1039.59
2023-02-07T05:00:43.888Z,1039.53
2023-02-07T05:01:44.208Z,1039.53
2023-02-07T05:02:43.899Z,1039.53
2023-02-07T05:03:43.799Z,1039.53
2023-02-07T05:04:44.364Z,1039.53
2023-02-07T05:05:43.985Z,1039.60
2023-02-07T05:06:43.730Z,1039.57
2023-02-07T05:07:43.954Z,1039.55
2023-02-07T05:08:44.321Z,1039.59
2023-02-07T05:09:43.785Z,1039.64
2023-02-07T05:10:43.614Z,1039.64
2023-02-07T05:11:44.162Z,1039.63
2023-02-07T05:12:43.760Z,1039.62
2023-02-07T05:13:43.760Z,1039.62
2023-02-07T05:14:44.194Z,1039.61
2023-02-07T05:15:44.251Z,1039.62
2023-02-07T05:16:43.630Z,1039.64
2023-02-07T05:17:43.801Z,1039.63
2023-02-07T05:18:43.646Z,1039.63
2023-02-07T05:19:43.527Z,1039.68
2023-02-07T05:20:43.645Z,1039.73
2023-02-07T05:21:43.529Z,1039.73
2023-02-07T05:22:43.804Z,1039.79
2023-02-07T05:23:43.644Z,1039.77
2023-02-07T05:24:43.549Z,1039.79
2023-02-07T05:25:43.481Z,1039.77
2023-02-07T05:26:44.147Z,1039.86
2023-02-07T05:27:44.069Z,1039.89
2023-02-07T05:28:43.317Z,1039.92
2023-02-07T05:29:43.399Z,1039.94
2023-02-07T05:30:43.435Z,1040.01
2023-02-07T05:31:44.039Z,1039.97
2023-02-07T05:32:43.264Z,1039.98
2023-02-07T05:33:44.001Z,1039.96
2023-02-07T05:34:43.747Z,1039.97
2023-02-07T05:35:43.350Z,1040.00
2023-02-07T05:36:43.237Z,1039.98
2023-02-07T05:37:43.236Z,1039.96
2023-02-07T05:38:43.309Z,1039.99
2023-02-07T05:39:43.424Z,1040.00
2023-02-07T05:40:43.347Z,1040.01
2023-02-07T05:41:43.170Z,1039.97
2023-02-07T05:42:43.342Z,1039.98
2023-02-07T05:43:43.451Z,1040.00
2023-02-07T05:44:43.402Z,1040.03
2023-02-07T05:45:43.660Z,1040.06
2023-02-07T05:46:43.303Z,1040.07
2023-02-07T05:47:43.726Z,1040.08
2023-02-07T05:48:43.046Z,1040.10
2023-02-07T05:49:43.302Z,1040.07
2023-02-07T05:50:43.193Z,1040.04
2023-02-07T05:51:43.160Z,1040.04
2023-02-07T05:52:43.065Z,1040.03
2023-02-07T05:53:43.141Z,1039.96
2023-02-07T05:54:43.021Z,1039.98
2023-02-07T05:55:43.682Z,1039.92
2023-02-07T05:56:43.456Z,1039.96
2023-02-07T05:57:43.253Z,1039.97
2023-02-07T05:58:43.066Z,1040.01
2023-02-07T05:59:42.944Z,1040.01
2023-02-07T06:00:43.028Z,1040.03
2023-02-07T06:01:43.066Z,1040.00
2023-02-07T06:02:43.013Z,1040.03
2023-02-07T06:03:43.156Z,1040.04
2023-02-07T06:04:43.114Z,1040.03
2023-02-07T06:05:43.081Z,1040.07
2023-02-07T06:06:44.158Z,1040.07
2023-02-07T06:07:43.355Z,1040.09
2023-02-07T06:08:42.899Z,1040.11
2023-02-07T06:09:43.113Z,1040.14
2023-02-07T06:10:43.692Z,1040.16
2023-02-07T06:11:42.946Z,1040.21
2023-02-07T06:12:42.932Z,1040.20
2023-02-07T06:13:43.692Z,1040.25
2023-02-07T06:14:42.725Z,1040.27
2023-02-07T06:15:42.858Z,1040.26
2023-02-07T06:16:43.138Z,1040.30
2023-02-07T06:17:43.002Z,1040.28
2023-02-07T06:18:43.331Z,1040.28
2023-02-07T06:19:42.964Z,1040.33
2023-02-07T06:20:42.780Z,1040.27
2023-02-07T06:21:46.731Z,1040.31
2023-02-07T06:22:42.787Z,1040.34
2023-02-07T06:23:42.727Z,1040.37
2023-02-07T06:24:42.620Z,1040.41
2023-02-07T06:25:42.640Z,1040.38
2023-02-07T06:26:42.634Z,1040.44
2023-02-07T06:27:42.569Z,1040.38
2023-02-07T06:28:42.648Z,1040.43
2023-02-07T06:29:42.607Z,1040.45
2023-02-07T06:30:42.610Z,1040.45
2023-02-07T06:31:42.591Z,1040.46
2023-02-07T06:32:42.567Z,1040.45
2023-02-07T06:33:42.501Z,1040.50
2023-02-07T06:34:44.109Z,1040.50
2023-02-07T06:35:42.874Z,1040.52
2023-02-07T06:36:42.516Z,1040.49
2023-02-07T06:37:42.496Z,1040.48
2023-02-07T06:38:43.023Z,1040.48
2023-02-07T06:39:42.438Z,1040.51
2023-02-07T06:40:43.152Z,1040.50
2023-02-07T06:41:42.477Z,1040.50
2023-02-07T06:42:42.587Z,1040.49
2023-02-07T06:43:42.685Z,1040.47
2023-02-07T06:44:42.374Z,1040.45
2023-02-07T06:45:43.703Z,1040.49
2023-02-07T06:46:43.509Z,1040.43
2023-02-07T06:47:42.348Z,1040.44
2023-02-07T06:48:42.523Z,1040.45
2023-02-07T06:49:42.363Z,1040.45
2023-02-07T06:50:42.458Z,1040.44
2023-02-07T06:51:43.011Z,1040.43
2023-02-07T06:52:42.509Z,1040.43
2023-02-07T06:53:42.556Z,1040.39
2023-02-07T06:54:42.270Z,1040.41
2023-02-07T06:55:42.204Z,1040.37
2023-02-07T06:56:42.228Z,1040.40
2023-02-07T06:57:42.330Z,1040.32
2023-02-07T06:58:42.631Z,1040.36
2023-02-07T06:59:42.274Z,1040.37
2023-02-07T07:00:42.157Z,1040.35
2023-02-07T07:01:42.392Z,1040.36
2023-02-07T07:02:42.226Z,1040.39
2023-02-07T07:03:42.795Z,1040.33
2023-02-07T07:04:42.601Z,1040.35
2023-02-07T07:05:42.312Z,1040.43
2023-02-07T07:06:42.106Z,1040.47
2023-02-07T07:07:42.009Z,1040.56
2023-02-07T07:08:42.107Z,1040.61
2023-02-07T07:09:42.152Z,1040.59
2023-02-07T07:10:42.127Z,1040.59
2023-02-07T07:11:42.193Z,1040.60
2023-02-07T07:12:42.458Z,1040.58
2023-02-07T07:13:42.703Z,1040.55
2023-02-07T07:14:42.048Z,1040.62
2023-02-07T07:15:42.024Z,1040.64
2023-02-07T07:16:42.782Z,1040.64
2023-02-07T07:17:42.257Z,1040.69
2023-02-07T07:18:42.036Z,1040.59
2023-02-07T07:19:41.919Z,1040.62
2023-02-07T07:20:42.092Z,1040.58
2023-02-07T07:21:43.171Z,1040.61
2023-02-07T07:22:42.403Z,1040.58
2023-02-07T07:23:42.129Z,1040.59
2023-02-07T07:24:41.859Z,1040.54
2023-02-07T07:25:42.217Z,1040.51
2023-02-07T07:26:49.442Z,1040.53
2023-02-07T07:27:43.273Z,1040.53
2023-02-07T07:28:44.240Z,1040.52
2023-02-07T07:29:42.008Z,1040.53
2023-02-07T07:30:41.805Z,1040.54
2023-02-07T07:31:42.181Z,1040.54
2023-02-07T07:32:42.591Z,1040.54
2023-02-07T07:33:41.678Z,1040.55
2023-02-07T07:34:42.167Z,1040.60
2023-02-07T07:35:42.519Z,1040.58
2023-02-07T07:36:41.702Z,1040.61
2023-02-07T07:37:41.918Z,1040.63
2023-02-07T07:38:44.646Z,1040.65
2023-02-07T07:39:42.693Z,1040.65
2023-02-07T07:40:43.303Z,1040.64
2023-02-07T07:41:41.932Z,1040.62
2023-02-07T07:42:41.600Z,1040.64
2023-02-07T07:43:42.942Z,1040.62
2023-02-07T07:44:42.135Z,1040.60
2023-02-07T07:45:41.751Z,1040.69
2023-02-07T07:46:41.782Z,1040.70
2023-02-07T07:47:41.590Z,1040.69
2023-02-07T07:48:43.426Z,1040.65
2023-02-07T07:49:44.006Z,1040.66
2023-02-07T07:50:41.903Z,1040.66
2023-02-07T07:51:41.634Z,1040.62
2023-02-07T07:52:41.665Z,1040.65
2023-02-07T07:53:41.694Z,1040.62
2023-02-07T07:54:41.522Z,1040.63
2023-02-07T07:55:41.499Z,1040.62
2023-02-07T07:56:41.637Z,1040.66
2023-02-07T07:57:41.527Z,1040.65
2023-02-07T07:58:41.425Z,1040.67
2023-02-07T07:59:41.870Z,1040.60
2023-02-07T08:00:41.766Z,1040.64
2023-02-07T08:01:42.056Z,1040.63
2023-02-07T08:02:42.309Z,1040.61
2023-02-07T08:03:42.163Z,1040.62
2023-02-07T08:04:41.347Z,1040.62
2023-02-07T08:05:41.402Z,1040.60
2023-02-07T08:06:41.715Z,1040.58
2023-02-07T08:07:41.433Z,1040.68
2023-02-07T08:08:41.654Z,1040.68
2023-02-07T08:09:41.517Z,1040.70
2023-02-07T08:10:41.392Z,1040.70
2023-02-07T08:11:41.404Z,1040.67
2023-02-07T08:12:43.295Z,1040.63
2023-02-07T08:13:41.216Z,1040.64
2023-02-07T08:14:41.269Z,1040.70
2023-02-07T08:15:41.686Z,1040.76
2023-02-07T08:16:41.525Z,1040.76
2023-02-07T08:17:41.296Z,1040.70
2023-02-07T08:18:41.282Z,1040.68
2023-02-07T08:19:41.609Z,1040.68
2023-02-07T08:20:41.731Z,1040.65
2023-02-07T08:21:42.883Z,1040.63
2023-02-07T08:22:41.057Z,1040.56
2023-02-07T08:23:41.396Z,1040.53
2023-02-07T08:24:41.240Z,1040.49
2023-02-07T08:25:41.634Z,1040.54
2023-02-07T08:26:42.260Z,1040.51
2023-02-07T08:27:40.966Z,1040.50
2023-02-07T08:28:41.931Z,1040.46
2023-02-07T08:29:40.938Z,1040.42
2023-02-07T08:30:41.093Z,1040.46
2023-02-07T08:31:41.043Z,1040.49
2023-02-07T08:32:40.874Z,1040.46
2023-02-07T08:33:40.871Z,1040.52
2023-02-07T08:34:42.195Z,1040.57
2023-02-07T08:35:40.776Z,1040.52
2023-02-07T08:36:40.893Z,1040.49
2023-02-07T08:37:41.222Z,1040.50
2023-02-07T08:38:40.824Z,1040.52
2023-02-07T08:39:41.617Z,1040.50
2023-02-07T08:40:42.810Z,1040.53
2023-02-07T08:41:42.543Z,1040.52
2023-02-07T08:42:40.734Z,1040.55
2023-02-07T08:43:41.202Z,1040.59
2023-02-07T08:44:41.194Z,1040.56
2023-02-07T08:45:41.202Z,1040.54
2023-02-07T08:46:40.787Z,1040.49
2023-02-07T08:47:40.805Z,1040.54
2023-02-07T08:48:40.584Z,1040.51
2023-02-07T08:49:41.798Z,1040.55
2023-02-07T08:50:40.897Z,1040.59
2023-02-07T08:51:41.322Z,1040.58
2023-02-07T08:52:41.272Z,1040.56
2023-02-07T08:53:40.820Z,1040.57
2023-02-07T08:54:40.975Z,1040.57
2023-02-07T08:55:40.678Z,1040.62
2023-02-07T08:56:40.940Z,1040.61
2023-02-07T08:57:40.549Z,1040.59
2023-02-07T08:58:41.126Z,1040.59
2023-02-07T08:59:40.601Z,1040.61
2023-02-07T09:00:40.944Z,1040.58
2023-02-07T09:01:40.569Z,1040.63
2023-02-07T09:02:40.574Z,1040.58
2023-02-07T09:03:41.670Z,1040.53
2023-02-07T09:04:40.458Z,1040.51
2023-02-07T09:05:40.486Z,1040.50
2023-02-07T09:06:42.726Z,1040.48
2023-02-07T09:07:41.212Z,1040.49
2023-02-07T09:08:40.612Z,1040.53
2023-02-07T09:09:41.833Z,1040.50
2023-02-07T09:10:40.792Z,1040.56
2023-02-07T09:11:40.313Z,1040.57
2023-02-07T09:12:40.467Z,1040.61
2023-02-07T09:13:40.619Z,1040.61
2023-02-07T09:14:41.598Z,1040.60
2023-02-07T09:15:40.365Z,1040.65
2023-02-07T09:16:40.433Z,1040.67
2023-02-07T09:17:40.468Z,1040.69
2023-02-07T09:18:40.608Z,1040.66
2023-02-07T09:19:41.445Z,1040.71
2023-02-07T09:20:41.181Z,1040.77
2023-02-07T09:21:40.120Z,1040.74
2023-02-07T09:22:40.392Z,1040.74
2023-02-07T09:23:40.385Z,1040.76
2023-02-07T09:24:40.980Z,1040.78
2023-02-07T09:25:42.749Z,1040.78
2023-02-07T09:26:40.160Z,1040.74
2023-02-07T09:27:40.482Z,1040.71
2023-02-07T09:28:40.396Z,1040.70
2023-02-07T09:29:40.967Z,1040.80
2023-02-07T09:30:40.325Z,1040.76
2023-02-07T09:31:40.467Z,1040.72
2023-02-07T09:32:41.585Z,1040.71
2023-02-07T09:33:43.320Z,1040.73
2023-02-07T09:34:40.832Z,1040.76
2023-02-07T09:35:39.909Z,1040.81
2023-02-07T09:36:40.084Z,1040.75
2023-02-07T09:37:49.307Z,1040.78
2023-02-07T09:38:41.107Z,1040.79
2023-02-07T09:39:40.053Z,1040.84
2023-02-07T09:40:40.679Z,1040.84
2023-02-07T09:41:39.948Z,1040.83
2023-02-07T09:42:40.768Z,1040.83
2023-02-07T09:43:40.935Z,1040.82
2023-02-07T09:44:40.409Z,1040.88
2023-02-07T09:45:39.856Z,1040.87
2023-02-07T09:46:40.135Z,1040.93
2023-02-07T09:47:40.974Z,1040.95
2023-02-07T09:48:39.955Z,1040.97
2023-02-07T09:49:39.925Z,1040.94
2023-02-07T09:50:40.714Z,1040.90
2023-02-07T09:51:40.232Z,1040.86
2023-02-07T09:52:41.710Z,1040.82
2023-02-07T09:53:39.688Z,1040.88
2023-02-07T09:54:39.764Z,1040.87
2023-02-07T09:55:45.313Z,1040.84
2023-02-07T09:56:39.818Z,1040.81
2023-02-07T09:57:43.045Z,1040.84
2023-02-07T09:58:41.005Z,1040.84
2023-02-07T09:59:40.599Z,1040.85
2023-02-07T10:00:41.109Z,1040.88
2023-02-07T10:01:40.246Z,1040.79
2023-02-07T10:02:43.512Z,1040.87
2023-02-07T10:03:40.854Z,1040.81
2023-02-07T10:04:41.001Z,1040.79
2023-02-07T10:05:43.330Z,1040.85
2023-02-07T10:06:42.086Z,1040.89
2023-02-07T10:07:41.223Z,1040.82
2023-02-07T10:08:41.353Z,1040.86
2023-02-07T10:09:43.022Z,1040.85
2023-02-07T10:10:43.945Z,1040.81
2023-02-07T10:11:42.189Z,1040.81
2023-02-07T10:12:43.542Z,1040.76
2023-02-07T10:13:40.394Z,1040.75
2023-02-07T10:14:40.194Z,1040.73
2023-02-07T10:15:41.647Z,1040.73
2023-02-07T10:16:44.008Z,1040.69
2023-02-07T10:17:39.582Z,1040.66
2023-02-07T10:18:44.261Z,1040.69
2023-02-07T10:19:39.631Z,1040.71
2023-02-07T10:20:41.160Z,1040.73
2023-02-07T10:21:41.008Z,1040.74
2023-02-07T10:22:44.175Z,1040.77
2023-02-07T10:23:52.626Z,1040.82
2023-02-07T10:24:40.511Z,1040.84
2023-02-07T10:25:41.359Z,1040.84
2023-02-07T10:26:41.067Z,1040.82
2023-02-07T10:28:02.352Z,1040.81
2023-02-07T10:28:40.299Z,1040.87
2023-02-07T10:29:41.916Z,1040.83
2023-02-07T10:30:41.839Z,1040.83
2023-02-07T10:31:39.472Z,1040.80
2023-02-07T10:32:43.960Z,1040.79
2023-02-07T10:33:45.014Z,1040.74
2023-02-07T10:34:39.691Z,1040.76
2023-02-07T10:35:41.387Z,1040.76
2023-02-07T10:36:40.667Z,1040.76
2023-02-07T10:37:39.490Z,1040.76
2023-02-07T10:38:42.593Z,1040.80
2023-02-07T10:39:46.289Z,1040.72
2023-02-07T10:40:42.347Z,1040.76
2023-02-07T10:41:39.331Z,1040.73
2023-02-07T10:42:40.529Z,1040.72
2023-02-07T10:43:44.040Z,1040.73
2023-02-07T10:44:41.816Z,1040.71
2023-02-07T10:45:39.032Z,1040.72
2023-02-07T10:46:42.472Z,1040.71
2023-02-07T10:47:40.040Z,1040.69
2023-02-07T10:48:39.676Z,1040.66
2023-02-07T10:49:41.565Z,1040.65
2023-02-07T10:50:40.900Z,1040.61
2023-02-07T10:51:39.950Z,1040.61
2023-02-07T10:52:39.747Z,1040.62
2023-02-07T10:53:52.765Z,1040.62
2023-02-07T10:54:44.109Z,1040.66
2023-02-07T10:55:40.203Z,1040.65
2023-02-07T10:56:42.993Z,1040.67
2023-02-07T10:59:22.245Z,1040.59
2023-02-07T10:59:55.434Z,1040.60
2023-02-07T11:00:54.324Z,1040.53
2023-02-07T11:01:54.740Z,1040.53
2023-02-07T11:02:56.111Z,1040.54
2023-02-07T11:03:56.103Z,1040.54
2023-02-07T11:04:53.995Z,1040.51
2023-02-07T11:05:54.896Z,1040.49
2023-02-07T11:06:54.274Z,1040.51
2023-02-07T11:07:55.033Z,1040.52
2023-02-07T11:08:55.579Z,1040.49
2023-02-07T11:09:55.084Z,1040.45
2023-02-07T11:10:53.970Z,1040.46
2023-02-07T11:11:55.675Z,1040.44
2023-02-07T11:12:55.993Z,1040.49
2023-02-07T11:13:57.076Z,1040.45
2023-02-07T11:14:55.888Z,1040.48
2023-02-07T11:15:56.255Z,1040.45
2023-02-07T11:16:57.429Z,1040.50
2023-02-07T11:24:18.002Z,1040.37
2023-02-07T11:25:08.911Z,1040.46
2023-02-07T11:26:08.734Z,1040.46
2023-02-07T11:27:08.861Z,1040.42
2023-02-07T11:28:08.908Z,1040.44
2023-02-07T11:29:08.966Z,1040.42
2023-02-07T11:30:08.874Z,1040.39
2023-02-07T11:31:09.185Z,1040.35
2023-02-07T11:32:09.103Z,1040.39
2023-02-07T11:33:08.869Z,1040.37
2023-02-07T11:34:08.787Z,1040.34
2023-02-07T11:35:08.669Z,1040.32
2023-02-07T11:36:08.721Z,1040.25
2023-02-07T11:37:12.280Z,1040.21
2023-02-07T11:38:08.898Z,1040.25
2023-02-07T11:39:08.725Z,1040.23
2023-02-07T11:40:08.628Z,1040.22
2023-02-07T11:41:08.617Z,1040.27
2023-02-07T11:42:09.157Z,1040.20
2023-02-07T11:43:08.730Z,1040.27
2023-02-07T11:44:08.876Z,1040.24
2023-02-07T11:45:08.549Z,1040.18
2023-02-07T11:46:10.891Z,1040.20
2023-02-07T11:47:08.973Z,1040.18
2023-02-07T11:48:08.402Z,1040.19
2023-02-07T11:49:08.370Z,1040.12
2023-02-07T11:50:10.554Z,1040.19
2023-02-07T11:51:08.410Z,1040.16
2023-02-07T11:52:08.517Z,1040.16
2023-02-07T11:53:08.725Z,1040.14
2023-02-07T11:54:08.519Z,1040.15
2023-02-07T11:55:09.634Z,1040.15
2023-02-07T11:56:08.547Z,1040.11
2023-02-07T11:57:08.562Z,1040.05
2023-02-07T11:58:08.572Z,1040.03
2023-02-07T11:59:08.571Z,1039.99
2023-02-07T12:00:08.378Z,1040.02
2023-02-07T12:01:08.556Z,1040.03
2023-02-07T12:02:08.554Z,1040.07
2023-02-07T12:03:08.999Z,1040.10
2023-02-07T12:04:08.398Z,1040.08
2023-02-07T12:05:08.667Z,1040.05
2023-02-07T12:06:08.501Z,1040.00
2023-02-07T12:07:09.031Z,1040.01
2023-02-07T12:08:22.439Z,1040.00
2023-02-07T12:09:08.217Z,1039.95
2023-02-07T12:10:08.233Z,1039.96
2023-02-07T12:11:08.338Z,1039.97
2023-02-07T12:12:44.487Z,1039.99
2023-02-07T12:13:08.695Z,1039.99